Time;durP1;ratioP1;P1;durP2;ratioP2;P2;SDS_P1;SDS_P2;PMS_P1;PMS_P2;Temp;Humidity;BMP_temperature;BMP_pressure;BME280_temperature;BME280_humidity;BME280_pressure;Samples;Min_cycle;Max_cycle;Signal;HPM_P1;HPM_P2
2023/04/28 00:02:02;;;;;;;3.63;2.40;;;;;;;0.41;nan;101275.53;5032531;28;20072;-81
2023/04/28 00:04:29;;;;;;;3.83;2.07;;;;;;;0.40;nan;101282.44;5032713;28;20032;-84
2023/04/28 00:06:56;;;;;;;4.10;2.10;;;;;;;0.34;nan;101271.88;5018250;28;20033;-83
2023/04/28 00:09:26;;;;;;;4.80;2.30;;;;;;;0.09;nan;101275.44;5049542;28;20521;-83
2023/04/28 00:11:53;;;;;;;4.47;2.40;;;;;;;-0.15;nan;101292.81;5031091;28;20037;-84
2023/04/28 00:14:20;;;;;;;4.27;2.20;;;;;;;-0.06;nan;101278.41;5028831;28;20382;-82
2023/04/28 00:16:48;;;;;;;3.60;2.20;;;;;;;0.29;nan;101270.84;5038297;28;20039;-84
2023/04/28 00:19:15;;;;;;;4.53;2.40;;;;;;;0.05;nan;101268.38;5023748;28;20517;-82
2023/04/28 00:21:44;;;;;;;6.30;2.80;;;;;;;0.04;nan;101263.13;5023288;28;20039;-83
2023/04/28 00:24:11;;;;;;;3.93;2.13;;;;;;;0.07;nan;101263.22;5039756;28;20033;-84
2023/04/28 00:26:38;;;;;;;3.30;2.20;;;;;;;0.07;nan;101258.91;5034091;28;20040;-83
2023/04/28 00:29:06;;;;;;;4.47;2.30;;;;;;;0.02;nan;101264.81;5031767;28;20047;-83
2023/04/28 00:31:34;;;;;;;4.07;2.47;;;;;;;-0.10;nan;101260.06;5045386;28;20039;-83
2023/04/28 00:34:01;;;;;;;4.83;2.20;;;;;;;-0.22;nan;101257.97;5035136;28;20048;-84
2023/04/28 00:36:31;;;;;;;3.07;2.30;;;;;;;-0.44;nan;101264.16;5034358;28;20043;-85
2023/04/28 00:39:00;;;;;;;4.00;2.37;;;;;;;-0.54;nan;101261.22;5030889;28;20052;-86
2023/04/28 00:41:30;;;;;;;3.33;2.10;;;;;;;-0.52;nan;101267.31;5015174;28;20036;-84
2023/04/28 00:43:57;;;;;;;3.83;2.30;;;;;;;-0.25;nan;101262.16;5031176;28;20046;-84
2023/04/28 00:46:28;;;;;;;6.40;2.40;;;;;;;-0.28;nan;101258.66;5032002;28;20037;-86
2023/04/28 00:48:55;;;;;;;3.37;2.27;;;;;;;-0.30;nan;101256.84;5037415;28;20045;-85
2023/04/28 00:51:22;;;;;;;3.73;2.50;;;;;;;-0.25;nan;101254.38;5037840;28;20036;-85
2023/04/28 00:53:50;;;;;;;4.83;2.43;;;;;;;-0.19;nan;101258.06;5034408;28;20032;-86
2023/04/28 00:56:17;;;;;;;2.73;2.30;;;;;;;-0.35;nan;101263.59;5037690;28;20040;-81
2023/04/28 00:58:44;;;;;;;3.40;2.00;;;;;;;-0.34;nan;101252.38;5034112;28;20494;-82
2023/04/28 01:01:11;;;;;;;5.77;2.30;;;;;;;-0.54;nan;101254.31;5051623;28;20036;-83
2023/04/28 01:03:39;;;;;;;4.97;2.23;;;;;;;-0.50;nan;101256.19;5042193;28;20040;-80
2023/04/28 01:06:08;;;;;;;5.57;2.20;;;;;;;-0.65;nan;101253.94;5028728;28;20040;-83
2023/04/28 01:08:36;;;;;;;3.17;2.30;;;;;;;-0.83;nan;101261.09;5043650;28;20028;-84
2023/04/28 01:11:03;;;;;;;4.87;2.50;;;;;;;-0.67;nan;101254.75;5041758;28;20047;-83
2023/04/28 01:13:30;;;;;;;4.13;2.23;;;;;;;-0.46;nan;101263.22;5049579;28;20053;-81
2023/04/28 01:15:57;;;;;;;6.30;2.40;;;;;;;-0.38;nan;101254.00;5057581;28;20044;-81
2023/04/28 01:18:24;;;;;;;4.37;2.43;;;;;;;-0.57;nan;101255.09;5055791;28;20032;-81
2023/04/28 01:20:51;;;;;;;3.93;2.63;;;;;;;-0.55;nan;101251.66;5040491;28;20036;-81
2023/04/28 01:23:18;;;;;;;3.00;2.40;;;;;;;-0.86;nan;101251.47;5039699;28;20040;-81
2023/04/28 01:25:45;;;;;;;3.17;2.03;;;;;;;-0.79;nan;101252.59;5037479;28;20035;-81
2023/04/28 01:28:12;;;;;;;4.00;2.47;;;;;;;-0.81;nan;101251.66;5039821;28;20028;-81
2023/04/28 01:30:39;;;;;;;4.77;2.57;;;;;;;-0.79;nan;101249.09;5037151;28;20033;-81
2023/04/28 01:33:06;;;;;;;3.73;2.10;;;;;;;-0.72;nan;101251.09;5037399;28;20044;-81
2023/04/28 01:35:33;;;;;;;3.67;2.03;;;;;;;-0.79;nan;101252.59;5056494;28;20048;-82
2023/04/28 01:38:00;;;;;;;3.77;2.37;;;;;;;-0.90;nan;101243.56;5053907;28;20036;-81
2023/04/28 01:40:27;;;;;;;6.17;2.20;;;;;;;-0.79;nan;101247.38;5039150;28;20405;-82
2023/04/28 01:42:55;;;;;;;4.60;2.97;;;;;;;-0.72;nan;101248.50;5039167;28;20056;-82
2023/04/28 01:45:22;;;;;;;3.30;2.30;;;;;;;-0.82;nan;101247.31;5033371;28;20040;-81
2023/04/28 01:47:48;;;;;;;3.37;2.20;;;;;;;-1.10;nan;101248.00;5041022;28;20041;-81
2023/04/28 01:50:15;;;;;;;3.40;2.23;;;;;;;-1.08;nan;101253.28;5017827;28;20051;-82
2023/04/28 01:52:42;;;;;;;3.93;2.10;;;;;;;-1.01;nan;101250.06;5035833;28;20033;-81
2023/04/28 01:55:09;;;;;;;4.53;2.67;;;;;;;-0.84;nan;101241.19;5049682;28;20746;-81
2023/04/28 01:57:36;;;;;;;3.47;2.03;;;;;;;-0.76;nan;101236.22;5045241;28;20036;-81
2023/04/28 02:00:03;;;;;;;2.77;2.30;;;;;;;-0.89;nan;101238.41;5025966;28;20390;-82
2023/04/28 02:02:30;;;;;;;7.23;2.87;;;;;;;-0.88;nan;101231.50;5035785;28;20078;-81
2023/04/28 02:04:58;;;;;;;2.83;2.07;;;;;;;-1.17;nan;101233.09;5023480;28;20049;-81
2023/04/28 02:07:25;;;;;;;3.70;2.80;;;;;;;-1.25;nan;101227.63;5041346;28;20025;-81
2023/04/28 02:09:52;;;;;;;4.23;2.57;;;;;;;-1.06;nan;101233.47;5040893;28;20044;-81
2023/04/28 02:12:19;;;;;;;4.27;2.77;;;;;;;-1.17;nan;101233.97;5046104;28;20040;-81
2023/04/28 02:14:46;;;;;;;4.13;2.60;;;;;;;-1.38;nan;101237.47;5030885;28;20029;-82
2023/04/28 02:17:13;;;;;;;4.57;2.93;;;;;;;-1.30;nan;101234.34;5033737;28;20041;-81
2023/04/28 02:19:40;;;;;;;4.07;2.10;;;;;;;-1.41;nan;101238.25;5030809;28;20047;-81
2023/04/28 02:22:08;;;;;;;4.23;2.40;;;;;;;-1.28;nan;101240.44;5044762;28;20050;-81
2023/04/28 02:24:36;;;;;;;4.47;2.90;;;;;;;-1.23;nan;101233.75;5052570;28;20033;-81
2023/04/28 02:27:04;;;;;;;4.27;2.07;;;;;;;-1.20;nan;101223.47;5025452;28;20067;-80
2023/04/28 02:29:31;;;;;;;3.37;2.47;;;;;;;-1.18;nan;101227.03;5047741;28;20033;-81
2023/04/28 02:31:59;;;;;;;3.67;2.10;;;;;;;-1.17;nan;101227.91;5036591;28;20045;-80
2023/04/28 02:34:26;;;;;;;4.33;2.77;;;;;;;-1.20;nan;101223.47;5039517;28;20071;-81
2023/04/28 02:36:53;;;;;;;5.50;2.70;;;;;;;-1.37;nan;101226.28;5021686;28;20043;-80
2023/04/28 02:39:25;;;;;;;4.43;2.70;;;;;;;-1.38;nan;101229.69;5030374;28;20440;-81
2023/04/28 02:41:52;;;;;;;4.37;2.47;;;;;;;-1.34;nan;101229.00;5045728;28;20656;-81
2023/04/28 02:44:19;;;;;;;5.13;2.23;;;;;;;-1.34;nan;101224.69;5028097;28;20029;-80
2023/04/28 02:46:46;;;;;;;6.60;2.60;;;;;;;-1.29;nan;101233.50;5044508;28;20039;-81
2023/04/28 02:49:13;;;;;;;4.10;2.30;;;;;;;-1.40;nan;101226.19;5028935;28;20032;-82
2023/04/28 02:51:40;;;;;;;4.37;2.33;;;;;;;-1.57;nan;101234.22;5054850;28;20047;-81
2023/04/28 02:54:07;;;;;;;3.40;2.40;;;;;;;-1.60;nan;101230.59;5019527;28;20041;-81
2023/04/28 02:56:35;;;;;;;4.93;2.20;;;;;;;-1.48;nan;101225.88;5048413;28;20036;-80
2023/04/28 02:59:03;;;;;;;4.47;2.53;;;;;;;-1.52;nan;101221.41;5023783;28;20043;-81
2023/04/28 03:01:30;;;;;;;4.10;2.60;;;;;;;-1.37;nan;101219.38;5033981;28;20054;-81
2023/04/28 03:03:56;;;;;;;4.40;2.93;;;;;;;-1.36;nan;101218.56;5069068;28;20044;-82
2023/04/28 03:06:24;;;;;;;4.77;2.83;;;;;;;-1.48;nan;101219.00;5020671;28;20033;-80
2023/04/28 03:08:51;;;;;;;4.50;2.50;;;;;;;-1.42;nan;101214.06;5022608;28;20043;-80
2023/04/28 03:11:18;;;;;;;4.03;2.27;;;;;;;-1.43;nan;101208.78;5048467;28;20240;-81
2023/04/28 03:13:48;;;;;;;4.53;2.47;;;;;;;-1.35;nan;101211.66;5050471;28;20041;-83
2023/04/28 03:16:15;;;;;;;5.83;3.53;;;;;;;-1.43;nan;101206.19;5050352;28;20044;-82
2023/04/28 03:18:42;;;;;;;3.47;2.27;;;;;;;-1.60;nan;101212.47;5068572;28;20067;-80
2023/04/28 03:21:09;;;;;;;3.13;2.17;;;;;;;-1.54;nan;101204.94;5051315;28;20678;-80
2023/04/28 03:23:36;;;;;;;3.00;2.07;;;;;;;-1.50;nan;101202.53;5011858;28;20040;-80
2023/04/28 03:26:03;;;;;;;4.40;2.80;;;;;;;-1.71;nan;101207.78;5037495;28;20045;-81
2023/04/28 03:28:30;;;;;;;3.83;2.33;;;;;;;-1.66;nan;101209.66;5037208;28;20303;-80
2023/04/28 03:30:57;;;;;;;4.27;2.20;;;;;;;-1.53;nan;101199.78;5052849;28;20036;-82
2023/04/28 03:33:24;;;;;;;3.67;2.27;;;;;;;-1.63;nan;101209.78;5036236;28;20040;-82
2023/04/28 03:35:52;;;;;;;6.37;3.00;;;;;;;-1.78;nan;101205.75;5023636;28;20043;-83
2023/04/28 03:38:20;;;;;;;6.17;2.60;;;;;;;-1.73;nan;101205.97;5021611;28;20043;-82
2023/04/28 03:40:46;;;;;;;5.20;2.70;;;;;;;-1.70;nan;101201.75;5024814;28;20036;-82
2023/04/28 03:43:13;;;;;;;3.70;2.50;;;;;;;-1.78;nan;101200.59;5034870;28;20050;-82
2023/04/28 03:45:40;;;;;;;5.93;2.60;;;;;;;-1.71;nan;101199.13;5029598;28;20039;-83
2023/04/28 03:48:07;;;;;;;4.97;2.50;;;;;;;-1.76;nan;101198.97;5030023;28;20524;-82
2023/04/28 03:50:34;;;;;;;3.53;2.53;;;;;;;-1.68;nan;101193.16;5034649;28;20075;-83
2023/04/28 03:53:01;;;;;;;5.07;2.77;;;;;;;-1.71;nan;101196.53;5035003;28;20398;-83
2023/04/28 03:55:28;;;;;;;5.83;2.60;;;;;;;-1.79;nan;101198.81;5051022;28;20512;-82
2023/04/28 03:57:55;;;;;;;4.17;2.70;;;;;;;-1.70;nan;101198.28;5023033;28;20043;-82
2023/04/28 04:00:22;;;;;;;6.37;2.87;;;;;;;-1.74;nan;101192.13;5035245;28;20064;-82
2023/04/28 04:02:49;;;;;;;4.70;3.03;;;;;;;-1.72;nan;101195.66;5031639;28;20037;-83
2023/04/28 04:05:16;;;;;;;4.43;2.97;;;;;;;-1.59;nan;101199.59;5016205;28;20047;-83
2023/04/28 04:07:43;;;;;;;4.53;2.83;;;;;;;-1.53;nan;101189.44;5024625;28;20037;-83
2023/04/28 04:10:10;;;;;;;5.27;2.47;;;;;;;-1.58;nan;101183.22;5018139;28;20578;-83
2023/04/28 04:12:37;;;;;;;4.93;3.10;;;;;;;-1.59;nan;101188.34;5033690;28;20037;-83
2023/04/28 04:15:04;;;;;;;4.70;3.23;;;;;;;-1.51;nan;101190.41;5001803;28;20053;-83
2023/04/28 04:17:31;;;;;;;4.23;2.70;;;;;;;-1.49;nan;101193.03;5028103;28;20041;-82
2023/04/28 04:19:58;;;;;;;5.37;2.87;;;;;;;-1.42;nan;101185.53;5001330;28;20595;-83
2023/04/28 04:22:25;;;;;;;4.83;2.87;;;;;;;-1.44;nan;101184.59;5034166;28;20107;-82
2023/04/28 04:24:52;;;;;;;4.73;2.20;;;;;;;-1.44;nan;101188.88;5029109;28;20029;-83
2023/04/28 04:27:19;;;;;;;3.70;2.50;;;;;;;-1.41;nan;101191.59;5027537;28;20028;-83
2023/04/28 04:29:46;;;;;;;6.00;2.83;;;;;;;-1.44;nan;101192.34;5052849;28;20028;-83
2023/04/28 04:32:13;;;;;;;4.17;2.50;;;;;;;-1.45;nan;101188.00;5031742;28;20401;-83
2023/04/28 04:34:40;;;;;;;7.47;3.00;;;;;;;-1.46;nan;101190.53;5035734;28;20043;-83
2023/04/28 04:37:08;;;;;;;4.80;3.03;;;;;;;-1.42;nan;101190.72;5037459;28;20055;-83
2023/04/28 04:39:35;;;;;;;5.63;3.10;;;;;;;-1.35;nan;101189.22;5037443;28;20029;-83
2023/04/28 04:42:02;;;;;;;4.23;3.00;;;;;;;-1.24;nan;101187.91;5035000;28;20071;-83
2023/04/28 04:44:39;;;;;;;5.57;3.00;;;;;;;-1.19;nan;101181.16;5048832;28;20036;-83
2023/04/28 04:47:06;;;;;;;5.53;3.10;;;;;;;-1.14;nan;101178.75;5034877;28;20040;-82
2023/04/28 04:49:33;;;;;;;5.50;3.17;;;;;;;-1.09;nan;101177.19;5077690;28;20044;-83
2023/04/28 04:52:00;;;;;;;4.90;2.77;;;;;;;-1.10;nan;101177.13;5027679;28;20545;-83
2023/04/28 04:54:27;;;;;;;6.07;3.30;;;;;;;-1.06;nan;101174.69;5045275;28;20036;-82
2023/04/28 04:56:54;;;;;;;4.37;3.33;;;;;;;-0.93;nan;101176.00;5053798;28;20041;-82
2023/04/28 04:59:21;;;;;;;5.03;3.10;;;;;;;-0.91;nan;101175.22;5037674;28;20043;-82
2023/04/28 05:01:48;;;;;;;4.93;3.03;;;;;;;-0.91;nan;101167.47;5043533;28;20044;-83
2023/04/28 05:04:15;;;;;;;3.83;2.43;;;;;;;-0.91;nan;101169.16;5009286;28;20044;-82
2023/04/28 05:06:43;;;;;;;4.87;3.03;;;;;;;-0.83;nan;101167.72;5032209;28;20055;-82
2023/04/28 05:09:10;;;;;;;5.60;3.07;;;;;;;-0.78;nan;101163.53;5033406;28;20040;-82
2023/04/28 05:11:36;;;;;;;4.57;2.30;;;;;;;-0.76;nan;101163.59;5030832;28;20041;-83
2023/04/28 05:14:04;;;;;;;5.53;3.00;;;;;;;-0.68;nan;101159.53;5028453;28;20040;-82
2023/04/28 05:16:31;;;;;;;5.03;2.87;;;;;;;-0.69;nan;101156.06;5010195;28;20044;-83
2023/04/28 05:18:58;;;;;;;5.37;2.80;;;;;;;-0.69;nan;101162.97;5036107;28;20038;-82
2023/04/28 05:21:25;;;;;;;4.33;2.73;;;;;;;-0.56;nan;101157.34;5051035;28;20036;-82
2023/04/28 05:23:52;;;;;;;5.30;3.00;;;;;;;-0.38;nan;101154.47;5038976;28;20033;-82
2023/04/28 05:26:19;;;;;;;4.07;2.67;;;;;;;-0.17;nan;101154.25;5016036;28;20061;-82
2023/04/28 05:28:46;;;;;;;5.57;3.10;;;;;;;-0.04;nan;101154.66;5040032;28;20028;-82
2023/04/28 05:31:13;;;;;;;4.50;2.87;;;;;;;0.01;nan;101149.63;5029644;28;20041;-82
2023/04/28 05:33:40;;;;;;;4.00;2.23;;;;;;;0.16;nan;101146.59;5034781;28;20036;-82
2023/04/28 05:36:07;;;;;;;4.23;2.90;;;;;;;0.20;nan;101149.31;5034783;28;20047;-82
2023/04/28 05:38:34;;;;;;;5.47;3.30;;;;;;;0.18;nan;101157.94;5029733;28;20037;-82
2023/04/28 05:41:01;;;;;;;5.33;2.93;;;;;;;0.26;nan;101143.44;5031185;28;20043;-83
2023/04/28 05:43:28;;;;;;;4.47;2.50;;;;;;;0.31;nan;101148.75;5028455;28;20050;-83
2023/04/28 05:45:55;;;;;;;5.70;2.73;;;;;;;0.66;nan;101144.53;5050166;28;20046;-81
2023/04/28 05:48:22;;;;;;;4.57;2.70;;;;;;;0.98;nan;101135.88;5049252;28;20700;-83
2023/04/28 05:50:49;;;;;;;3.93;2.47;;;;;;;1.79;nan;101143.06;5030898;28;20033;-82
2023/04/28 05:53:16;;;;;;;3.40;2.30;;;;;;;2.68;nan;101126.66;5032812;28;20151;-83
2023/04/28 05:55:43;;;;;;;3.33;2.07;;;;;;;3.84;nan;101121.66;5038528;28;20032;-84
2023/04/28 05:58:10;;;;;;;4.00;2.03;;;;;;;5.04;nan;101124.84;5030110;28;20035;-85
2023/04/28 06:00:37;;;;;;;4.60;2.27;;;;;;;5.48;nan;101116.47;5030814;28;20037;-85
2023/04/28 06:03:04;;;;;;;7.27;3.37;;;;;;;5.65;nan;101113.97;5025407;28;20051;-84
2023/04/28 06:05:31;;;;;;;5.60;2.73;;;;;;;5.31;nan;101108.47;5018866;28;20498;-83
2023/04/28 06:07:59;;;;;;;3.53;2.20;;;;;;;5.27;nan;101101.44;5034701;28;20048;-84
2023/04/28 06:10:26;;;;;;;3.57;2.60;;;;;;;5.38;nan;101109.38;5035371;28;20036;-84
2023/04/28 06:12:52;;;;;;;3.63;2.50;;;;;;;5.30;nan;101109.34;5019124;28;20405;-83
2023/04/28 06:15:20;;;;;;;3.80;2.40;;;;;;;6.12;nan;101102.91;5034944;28;20037;-84
2023/04/28 06:17:47;;;;;;;2.90;2.00;;;;;;;7.87;nan;101092.59;5018836;28;20539;-84
2023/04/28 06:20:13;;;;;;;5.30;2.33;;;;;;;9.13;nan;101089.34;5019110;28;20494;-84
2023/04/28 06:22:40;;;;;;;3.10;2.10;;;;;;;11.11;nan;101084.41;5034554;28;20501;-85
2023/04/28 06:25:08;;;;;;;3.55;2.10;;;;;;;12.24;nan;101073.56;5039540;28;20043;-85
2023/04/28 06:27:35;;;;;;;3.47;2.28;;;;;;;13.37;nan;101071.88;5040058;28;20040;-85
2023/04/28 06:30:02;;;;;;;3.72;2.30;;;;;;;13.72;nan;101072.72;5023142;28;20051;-84
2023/04/28 06:32:29;;;;;;;3.00;1.90;;;;;;;14.72;nan;101055.66;5034127;28;20044;-86
2023/04/28 06:34:56;;;;;;;4.72;2.33;;;;;;;14.68;nan;101059.31;5007673;28;20044;-86
2023/04/28 06:37:24;;;;;;;3.20;2.10;;;;;;;14.92;nan;101057.69;5029255;28;20497;-86
2023/04/28 06:39:51;;;;;;;5.53;2.35;;;;;;;13.46;nan;101068.97;5023039;28;20033;-85
2023/04/28 06:42:19;;;;;;;4.40;2.35;;;;;;;12.93;nan;101067.59;5032477;28;20032;-85
2023/04/28 06:44:46;;;;;;;3.58;2.40;;;;;;;12.74;nan;101051.25;5039168;28;20107;-87
2023/04/28 06:47:13;;;;;;;4.70;2.65;;;;;;;12.57;nan;101058.72;5042135;28;20112;-84
2023/04/28 06:49:42;;;;;;;5.10;2.50;;;;;;;12.48;nan;101058.91;5040811;28;20043;-84
2023/04/28 06:52:09;;;;;;;3.97;2.22;;;;;;;12.53;nan;101051.75;5030820;28;20049;-85
2023/04/28 06:54:37;;;;;;;5.10;2.33;;;;;;;12.51;nan;101048.25;5034318;28;20041;-86
2023/04/28 06:57:04;;;;;;;3.28;2.10;;;;;;;12.77;nan;101048.50;5002027;28;20452;-85
2023/04/28 06:59:31;;;;;;;5.22;2.20;;;;;;;12.25;nan;101035.56;5016588;28;20033;-85
2023/04/28 07:01:58;;;;;;;4.32;2.03;;;;;;;12.36;nan;101036.22;5051326;28;20033;-85
2023/04/28 07:04:26;;;;;;;4.47;2.22;;;;;;;12.27;nan;101034.63;5011015;28;20056;-85
2023/04/28 07:06:53;;;;;;;4.25;2.08;;;;;;;12.54;nan;101032.28;5029302;28;20059;-86
2023/04/28 07:09:20;;;;;;;7.53;2.10;;;;;;;12.77;nan;101029.97;5025081;28;20035;-84
2023/04/28 07:11:47;;;;;;;2.97;2.40;;;;;;;12.95;nan;101029.53;5049572;28;20039;-85
2023/04/28 07:14:14;;;;;;;4.65;2.25;;;;;;;13.04;nan;101027.56;5045642;28;20494;-85
2023/04/28 07:16:41;;;;;;;4.05;2.10;;;;;;;13.02;nan;101019.63;5038166;28;20066;-85
2023/04/28 07:19:08;;;;;;;5.15;2.30;;;;;;;12.94;nan;101022.47;5037347;28;20033;-86
2023/04/28 07:21:35;;;;;;;4.80;2.10;;;;;;;12.89;nan;101020.84;5053545;28;20042;-84
2023/04/28 07:24:02;;;;;;;5.13;2.08;;;;;;;12.65;nan;101015.22;5012173;28;20731;-85
2023/04/28 07:26:29;;;;;;;4.03;2.00;;;;;;;12.75;nan;101007.91;5051405;28;20047;-85
2023/04/28 07:28:56;;;;;;;5.00;1.70;;;;;;;13.08;nan;101023.91;5054071;28;20109;-85
2023/04/28 07:31:23;;;;;;;3.65;2.17;;;;;;;12.78;nan;101020.22;5038054;28;20107;-86
2023/04/28 07:33:50;;;;;;;2.20;1.80;;;;;;;12.56;nan;101012.78;5034354;28;20041;-84
2023/04/28 07:36:17;;;;;;;4.13;2.10;;;;;;;12.53;nan;101010.22;5026509;28;20048;-87
2023/04/28 07:38:44;;;;;;;3.25;1.83;;;;;;;12.86;nan;101013.84;5033622;28;20037;-85
2023/04/28 07:41:11;;;;;;;4.30;2.10;;;;;;;12.77;nan;101011.41;5025058;28;20045;-85
2023/04/28 07:43:39;;;;;;;4.22;2.00;;;;;;;12.29;nan;101016.06;5025127;28;20052;-84
2023/04/28 07:46:07;;;;;;;3.20;2.20;;;;;;;12.60;nan;101010.91;5050854;28;20412;-85
2023/04/28 07:48:34;;;;;;;2.33;1.92;;;;;;;12.84;nan;101020.94;5046929;28;20033;-84
2023/04/28 07:51:01;;;;;;;4.78;3.00;;;;;;;12.92;nan;101015.47;5014885;28;20644;-84
2023/04/28 07:53:28;;;;;;;3.60;1.98;;;;;;;13.01;nan;101009.06;5034528;28;20038;-85
2023/04/28 07:55:55;;;;;;;2.33;1.92;;;;;;;13.11;nan;101014.09;5027341;28;20437;-85
2023/04/28 07:58:22;;;;;;;2.85;2.00;;;;;;;13.04;nan;101006.34;5044561;28;20047;-83
2023/04/28 08:00:49;;;;;;;6.03;2.50;;;;;;;12.33;nan;100992.09;5029093;28;20700;-84
2023/04/28 08:03:16;;;;;;;8.07;3.13;;;;;;;12.85;nan;101001.47;5052026;28;20405;-85
2023/04/28 08:05:44;;;;;;;4.00;1.80;;;;;;;12.99;nan;100992.31;5022063;28;20037;-84
2023/04/28 08:08:11;;;;;;;4.28;2.08;;;;;;;12.78;nan;100999.00;5032716;28;20040;-84
2023/04/28 08:10:40;;;;;;;3.88;1.88;;;;;;;13.06;nan;100991.25;5030045;28;20058;-84
2023/04/28 08:13:07;;;;;;;3.88;1.77;;;;;;;12.91;nan;100996.03;5009301;28;20037;-84
2023/04/28 08:15:34;;;;;;;6.20;2.45;;;;;;;12.71;nan;100993.00;5029498;28;20051;-83
2023/04/28 08:18:02;;;;;;;6.25;2.17;;;;;;;12.72;nan;100991.22;5026864;28;20044;-84
2023/04/28 08:20:29;;;;;;;6.57;2.30;;;;;;;12.90;nan;100994.28;5034789;28;20032;-83
2023/04/28 08:22:56;;;;;;;6.35;2.85;;;;;;;13.14;nan;100987.50;5019277;28;20037;-84
2023/04/28 08:25:23;;;;;;;4.82;2.00;;;;;;;13.14;nan;100991.94;5014444;28;20051;-84
2023/04/28 08:27:50;;;;;;;4.68;2.70;;;;;;;13.37;nan;100983.38;5051636;28;20037;-85
2023/04/28 08:30:17;;;;;;;4.38;2.10;;;;;;;13.33;nan;100972.00;5040547;28;20036;-84
2023/04/28 08:32:44;;;;;;;4.88;2.30;;;;;;;13.17;nan;100976.81;5017195;28;20045;-85
2023/04/28 08:35:11;;;;;;;5.75;2.53;;;;;;;12.83;nan;100986.53;5026267;28;20052;-84
2023/04/28 08:37:38;;;;;;;4.65;2.35;;;;;;;13.06;nan;100983.31;5026859;28;20036;-85
2023/04/28 08:40:08;;;;;;;5.53;2.72;;;;;;;12.86;nan;100974.09;5043473;28;20040;-84
2023/04/28 08:42:36;;;;;;;6.90;3.05;;;;;;;13.17;nan;100973.28;5030290;28;20032;-84
2023/04/28 08:45:04;;;;;;;3.70;2.45;;;;;;;13.26;nan;100975.72;5033174;28;20041;-85
2023/04/28 08:47:44;;;;;;;3.85;2.22;;;;;;;13.20;nan;100975.88;5035044;28;20396;-84
2023/04/28 08:50:12;;;;;;;4.75;2.38;;;;;;;13.28;nan;100973.03;5019901;28;20029;-84
2023/04/28 08:52:41;;;;;;;6.07;2.60;;;;;;;13.58;nan;100971.31;5058584;28;20048;-85
2023/04/28 08:55:10;;;;;;;6.75;3.10;;;;;;;13.70;nan;100957.69;5017564;28;20043;-85
2023/04/28 08:57:46;;;;;;;5.97;2.83;;;;;;;13.61;nan;100958.81;5027548;28;20041;-84
2023/04/28 09:00:13;;;;;;;3.83;2.22;;;;;;;13.89;nan;100950.97;5032509;28;20037;-84
2023/04/28 09:02:41;;;;;;;4.65;2.67;;;;;;;14.12;nan;100942.28;5012592;28;20059;-85
2023/04/28 09:05:09;;;;;;;4.93;2.72;;;;;;;14.57;nan;100940.00;5016120;28;20045;-85
2023/04/28 09:07:37;;;;;;;5.55;2.60;;;;;;;14.46;nan;100938.59;5025743;28;20043;-84
2023/04/28 09:10:23;;;;;;;2.97;2.30;;;;;;;13.98;nan;100933.88;5029528;28;20441;-83
2023/04/28 09:12:51;;;;;;;4.68;2.90;;;;;;;14.43;nan;100942.19;5031970;28;20032;-82
2023/04/28 09:15:30;;;;;;;5.22;2.78;;;;;;;14.36;nan;100938.00;5032513;28;20045;-86
2023/04/28 09:18:00;;;;;;;6.03;2.92;;;;;;;14.23;nan;100928.69;5051525;28;20047;-85
2023/04/28 09:20:29;;;;;;;3.63;2.40;;;;;;;14.21;nan;100931.41;5047111;28;20037;-85
2023/04/28 09:23:12;;;;;;;5.85;2.78;;;;;;;14.36;nan;100922.03;5032845;28;20044;-86
2023/04/28 09:25:39;;;;;;;4.10;2.70;;;;;;;14.76;nan;100916.34;5036064;28;20036;-86
2023/04/28 09:28:20;;;;;;;5.13;3.03;;;;;;;14.89;nan;100914.13;5029517;28;20036;-86
2023/04/28 09:30:47;;;;;;;4.13;2.90;;;;;;;14.45;nan;100913.81;5055281;28;20036;-85
2023/04/28 09:33:15;;;;;;;3.95;2.70;;;;;;;14.67;nan;100908.66;5027605;28;20051;-85
2023/04/28 09:35:44;;;;;;;3.10;2.75;;;;;;;14.54;nan;100921.47;5017448;28;20041;-84
2023/04/28 09:38:11;;;;;;;3.95;2.67;;;;;;;14.40;nan;100913.06;5035549;28;20041;-87
2023/04/28 09:40:57;;;;;;;4.45;2.42;;;;;;;14.80;nan;100911.78;5036969;28;20055;-84
2023/04/28 09:43:32;;;;;;;4.93;2.55;;;;;;;14.62;nan;100906.16;5031045;28;20047;-84
2023/04/28 09:46:01;;;;;;;5.43;2.72;;;;;;;14.92;nan;100900.72;5039113;28;20071;-84
2023/04/28 09:48:30;;;;;;;3.28;2.30;;;;;;;14.76;nan;100899.50;5035246;28;20041;-84
2023/04/28 09:51:02;;;;;;;4.75;2.35;;;;;;;15.35;nan;100892.06;5024662;28;20045;-82
2023/04/28 09:53:29;;;;;;;5.07;2.75;;;;;;;15.55;nan;100888.66;5032239;28;20036;-84
2023/04/28 09:55:58;;;;;;;7.82;3.22;;;;;;;15.84;nan;100881.41;5043624;28;20063;-86
2023/04/28 09:58:26;;;;;;;3.42;2.88;;;;;;;15.94;nan;100874.81;5055298;28;20678;-84
2023/04/28 10:00:58;;;;;;;5.35;2.50;;;;;;;15.56;nan;100889.56;5054877;28;20378;-83
2023/04/28 10:03:27;;;;;;;5.25;2.58;;;;;;;15.59;nan;100874.34;5038623;28;20039;-84
2023/04/28 10:05:57;;;;;;;5.82;2.90;;;;;;;15.11;nan;100863.69;5054032;28;20049;-84
2023/04/28 10:08:26;;;;;;;4.10;2.50;;;;;;;15.22;nan;100866.84;5054087;28;20058;-83
2023/04/28 10:10:53;;;;;;;6.30;3.08;;;;;;;15.32;nan;100854.06;5032908;28;20029;-84
2023/04/28 10:13:21;;;;;;;6.45;2.88;;;;;;;15.62;nan;100852.06;5054408;28;20115;-83
2023/04/28 10:15:49;;;;;;;4.28;2.63;;;;;;;15.91;nan;100858.94;5038409;28;20047;-83
2023/04/28 10:18:17;;;;;;;3.88;2.97;;;;;;;16.07;nan;100852.09;5034662;28;20044;-85
2023/04/28 10:20:46;;;;;;;7.15;3.00;;;;;;;16.27;nan;100846.78;5033928;28;20500;-83
2023/04/28 10:23:29;;;;;;;4.43;2.67;;;;;;;16.73;nan;100846.69;5009572;28;20045;-85
2023/04/28 10:25:59;;;;;;;5.05;3.60;;;;;;;16.57;nan;100835.78;5047076;28;20043;-86
2023/04/28 10:28:26;;;;;;;7.43;3.70;;;;;;;16.72;nan;100835.16;5028710;28;20400;-83
2023/04/28 10:31:10;;;;;;;4.28;3.35;;;;;;;16.85;nan;100823.03;5039508;28;20058;-84
2023/04/28 10:33:38;;;;;;;4.13;3.20;;;;;;;16.96;nan;100827.00;5051431;28;20028;-84
2023/04/28 10:36:06;;;;;;;5.50;2.80;;;;;;;16.67;nan;100826.47;5037057;28;20040;-83
2023/04/28 10:38:34;;;;;;;5.50;3.15;;;;;;;16.12;nan;100818.09;5039161;28;20213;-84
2023/04/28 10:41:02;;;;;;;5.70;2.88;;;;;;;16.32;nan;100823.50;5020331;28;20044;-84
2023/04/28 10:43:32;;;;;;;6.93;3.33;;;;;;;16.81;nan;100815.19;5020824;28;20033;-84
2023/04/28 10:46:04;;;;;;;5.78;3.38;;;;;;;17.01;nan;100815.22;5047894;28;20047;-83
2023/04/28 10:48:31;;;;;;;7.18;3.53;;;;;;;16.67;nan;100814.94;5040038;28;20119;-83
2023/04/28 10:53:44;;;;;;;5.82;3.63;;;;;;;17.04;nan;100800.84;5064144;28;20461;-84
2023/04/28 10:56:18;;;;;;;16.50;4.85;;;;;;;16.92;nan;100796.94;5048180;28;20037;-84
2023/04/28 10:58:49;;;;;;;5.53;3.42;;;;;;;16.94;nan;100797.72;5037129;28;20037;-80
2023/04/28 11:01:19;;;;;;;6.43;3.80;;;;;;;16.88;nan;100801.53;5034067;28;20024;-82
2023/04/28 11:03:50;;;;;;;6.68;3.85;;;;;;;16.84;nan;100804.41;5063919;28;20036;-82
2023/04/28 11:06:27;;;;;;;7.22;4.50;;;;;;;16.73;nan;100790.66;5052511;28;20041;-82
2023/04/28 11:08:56;;;;;;;191.45;24.48;;;;;;;16.75;nan;100787.00;5007800;28;20055;-83
2023/04/28 11:11:27;;;;;;;6.47;3.90;;;;;;;16.39;nan;100793.88;5047398;28;20040;-84
2023/04/28 11:14:19;;;;;;;5.97;3.50;;;;;;;16.63;nan;100792.84;5052220;28;20036;-83
2023/04/28 11:16:51;;;;;;;6.80;4.20;;;;;;;16.76;nan;100796.75;5051861;28;20107;-83
2023/04/28 11:19:22;;;;;;;6.35;4.03;;;;;;;16.91;nan;100789.00;5028804;28;20039;-84
2023/04/28 11:21:49;;;;;;;6.25;3.88;;;;;;;17.24;nan;100787.47;5032071;28;20021;-84
2023/04/28 11:24:16;;;;;;;7.55;3.92;;;;;;;17.02;nan;100800.94;5033778;28;20037;-84
2023/04/28 11:26:43;;;;;;;7.93;3.72;;;;;;;16.53;nan;100783.50;5029585;28;20045;-84
2023/04/28 11:29:11;;;;;;;6.70;3.97;;;;;;;16.42;nan;100796.44;5032170;28;20525;-84
2023/04/28 11:31:38;;;;;;;7.88;4.25;;;;;;;16.53;nan;100783.50;5030079;28;20032;-83
2023/04/28 11:34:07;;;;;;;6.38;3.80;;;;;;;16.44;nan;100783.91;5027049;28;20523;-84
2023/04/28 11:36:36;;;;;;;7.05;3.65;;;;;;;16.58;nan;100776.19;5021940;28;20039;-84
2023/04/28 11:39:05;;;;;;;7.38;4.00;;;;;;;16.99;nan;100776.19;5037287;28;20032;-86
2023/04/28 11:41:37;;;;;;;5.30;3.70;;;;;;;17.08;nan;100773.97;5041420;28;20676;-84
2023/04/28 11:44:18;;;;;;;6.22;4.05;;;;;;;16.69;nan;100771.25;5021652;28;20045;-84
2023/04/28 11:46:54;;;;;;;6.93;4.22;;;;;;;16.52;nan;100771.97;5034894;28;20041;-85
2023/04/28 11:49:27;;;;;;;6.25;3.88;;;;;;;16.35;nan;100784.28;5018707;28;20049;-84